JOHN F KENNEDY INTL

KJFK (JFK)
New York, New York
Towered

Vatsim Metar:
KJFK 260751Z 19005KT 10SM FEW250 20/18 A3011 RMK AO2 SLP195 T02000183 $

No ATC Online

Traffic

Inbound:
Ident
Type
Name
ETA
Phase
AAL145
B772
814229
09:42 Z
Cruse
SWR16F
A333
Raphael Moll LSZH
15:14 Z
Cruse
JAL8006
B77W
Dhagash Kapadia KMCI
16:28 Z
Cruse
WAT836
B77W
1459442 CYEG
17:13 Z
Cruse

Outbound:
Ident
Type
Name
Destination
Phase
JBU669
A320
Diego KMIA
KSJC
Boarding